createdAt,value
2017-11-26T00:00:56.507Z,4.5
2017-11-26T00:01:58.830Z,4.5
2017-11-26T00:03:01.195Z,4.5
2017-11-26T00:04:03.670Z,4.5
2017-11-26T00:05:07.369Z,4.5
2017-11-26T00:06:09.727Z,4.5
2017-11-26T00:07:12.010Z,4.6
2017-11-26T00:08:14.343Z,4.5
2017-11-26T00:09:16.640Z,4.5
2017-11-26T00:10:19.479Z,4.5
2017-11-26T00:11:21.761Z,4.5
2017-11-26T00:12:24.741Z,4.4
2017-11-26T00:13:27.037Z,4.4
2017-11-26T00:14:29.412Z,4.4
2017-11-26T00:15:32.926Z,4.4
2017-11-26T00:16:35.344Z,4.4
2017-11-26T00:17:37.644Z,4.4
2017-11-26T00:18:39.939Z,4.4
2017-11-26T00:19:42.298Z,4.4
2017-11-26T00:20:44.589Z,4.4
2017-11-26T00:21:46.829Z,4.3
2017-11-26T00:22:49.071Z,4.3
2017-11-26T00:23:51.503Z,4.3
2017-11-26T00:24:54.477Z,4.2
2017-11-26T00:25:58.152Z,4.2
2017-11-26T00:27:00.419Z,4.2
2017-11-26T00:28:02.731Z,4.2
2017-11-26T00:29:05.874Z,4.2
2017-11-26T00:30:08.299Z,4.2
2017-11-26T00:31:10.628Z,4.3
2017-11-26T00:32:12.876Z,4.2
2017-11-26T00:33:15.268Z,4.2
2017-11-26T00:34:17.608Z,4.3
2017-11-26T00:35:19.939Z,4.2
2017-11-26T00:36:23.392Z,4.2
2017-11-26T00:37:25.639Z,4.2
2017-11-26T00:38:27.954Z,4.2
2017-11-26T00:39:30.274Z,4.2
2017-11-26T00:40:33.565Z,4.2
2017-11-26T00:41:35.852Z,4.1
2017-11-26T00:42:38.091Z,4.1
2017-11-26T00:43:40.460Z,4.1
2017-11-26T00:44:42.717Z,4.1
2017-11-26T00:45:45.023Z,4.1
2017-11-26T00:46:48.647Z,4.1
2017-11-26T00:47:50.935Z,4.1
2017-11-26T00:48:53.309Z,4.1
2017-11-26T00:49:55.569Z,4.1
2017-11-26T00:50:57.900Z,4
2017-11-26T00:52:00.330Z,4.1
2017-11-26T00:53:02.613Z,4.1
2017-11-26T00:54:04.895Z,4.1
2017-11-26T00:55:07.577Z,4.1
2017-11-26T00:56:09.868Z,4.2
2017-11-26T00:57:13.658Z,4.2
2017-11-26T00:58:16.125Z,4.1
2017-11-26T00:59:18.428Z,4
2017-11-26T01:00:20.758Z,4.1
2017-11-26T01:01:23.082Z,4
2017-11-26T01:02:25.427Z,4
2017-11-26T01:03:27.816Z,4
2017-11-26T01:04:30.254Z,3.9
2017-11-26T01:05:32.547Z,3.9
2017-11-26T01:06:34.814Z,4
2017-11-26T01:07:38.514Z,4
2017-11-26T01:08:40.842Z,4
2017-11-26T01:09:43.195Z,4
2017-11-26T01:10:45.598Z,4
2017-11-26T01:11:47.851Z,3.9
2017-11-26T01:12:50.121Z,3.9
2017-11-26T01:13:52.462Z,3.9
2017-11-26T01:14:54.761Z,3.9
2017-11-26T01:15:57.016Z,3.9
2017-11-26T01:16:59.449Z,3.9
2017-11-26T01:18:03.117Z,3.9
2017-11-26T01:19:05.437Z,3.8
2017-11-26T01:20:07.683Z,3.9
2017-11-26T01:21:10.305Z,3.9
2017-11-26T01:22:12.715Z,3.9
2017-11-26T01:23:15.004Z,3.8
2017-11-26T01:24:17.385Z,3.8
2017-11-26T01:25:19.661Z,3.6
2017-11-26T01:26:21.998Z,3.7
2017-11-26T01:27:24.315Z,3.7
2017-11-26T01:28:27.947Z,3.7
2017-11-26T01:29:30.245Z,3.7
2017-11-26T01:30:32.546Z,3.7
2017-11-26T01:31:35.129Z,3.7
2017-11-26T01:32:37.509Z,3.6
2017-11-26T01:33:39.936Z,3.6
2017-11-26T01:34:42.192Z,3.5
2017-11-26T01:35:44.491Z,3.5
2017-11-26T01:36:47.099Z,3.5
2017-11-26T01:37:49.396Z,3.5
2017-11-26T01:38:52.917Z,3.6
2017-11-26T01:39:55.179Z,3.6
2017-11-26T01:40:57.463Z,3.5
2017-11-26T01:41:59.707Z,3.6
2017-11-26T01:43:02.113Z,3.6
2017-11-26T01:44:04.444Z,3.6
2017-11-26T01:45:06.802Z,3.6
2017-11-26T01:46:09.117Z,3.6
2017-11-26T01:47:11.698Z,3.6
2017-11-26T01:48:15.087Z,3.6
2017-11-26T01:49:18.678Z,3.6
2017-11-26T01:50:21.038Z,3.6
2017-11-26T01:52:24.345Z,3.5
2017-11-26T01:53:26.689Z,3.5
2017-11-26T01:54:28.853Z,3.6
2017-11-26T01:55:31.149Z,3.6
2017-11-26T01:56:33.485Z,3.6
2017-11-26T01:57:35.853Z,3.6
2017-11-26T01:58:38.133Z,3.6
2017-11-26T01:59:41.921Z,3.6
2017-11-26T02:00:44.311Z,3.5
2017-11-26T02:01:46.576Z,3.5
2017-11-26T02:02:48.980Z,3.5
2017-11-26T02:03:51.271Z,3.5
2017-11-26T02:04:53.586Z,3.6
2017-11-26T02:05:55.897Z,3.6
2017-11-26T02:06:58.271Z,3.6
2017-11-26T02:08:00.816Z,3.5
2017-11-26T02:09:03.080Z,3.6
2017-11-26T02:10:06.745Z,3.5
2017-11-26T02:11:09.063Z,3.5
2017-11-26T02:12:11.363Z,3.5
2017-11-26T02:13:13.949Z,3.5
2017-11-26T02:14:16.282Z,3.5
2017-11-26T02:15:18.583Z,3.5
2017-11-26T02:16:20.924Z,3.5
2017-11-26T02:17:23.226Z,3.5
2017-11-26T02:18:25.900Z,3.5
2017-11-26T02:19:28.232Z,3.5
2017-11-26T02:20:31.896Z,3.5
2017-11-26T02:21:34.142Z,3.5
2017-11-26T02:22:36.559Z,3.5
2017-11-26T02:23:38.812Z,3.4
2017-11-26T02:24:41.157Z,3.4
2017-11-26T02:25:43.433Z,3.5
2017-11-26T02:26:45.808Z,3.4
2017-11-26T02:27:48.054Z,3.5
2017-11-26T02:28:50.368Z,3.5
2017-11-26T02:29:52.728Z,3.5
2017-11-26T02:30:56.294Z,3.5
2017-11-26T02:31:58.692Z,3.5
2017-11-26T02:33:01.033Z,3.5
2017-11-26T02:34:03.319Z,3.5
2017-11-26T02:35:06.278Z,3.5
2017-11-26T02:36:08.666Z,3.5
2017-11-26T02:37:10.924Z,3.5
2017-11-26T02:38:13.331Z,3.5
2017-11-26T02:39:15.689Z,3.5
2017-11-26T02:40:18.061Z,3.5
2017-11-26T02:41:21.704Z,3.5
2017-11-26T02:42:24.014Z,3.5
2017-11-26T02:43:26.347Z,3.5
2017-11-26T02:44:28.892Z,3.4
2017-11-26T02:45:31.175Z,3.4
2017-11-26T02:46:33.612Z,3.4
2017-11-26T02:47:35.941Z,3.3
2017-11-26T02:48:38.189Z,3.3
2017-11-26T02:49:40.732Z,3.4
2017-11-26T02:50:43.206Z,3.4
2017-11-26T02:51:46.808Z,3.4
2017-11-26T02:52:49.765Z,3.4
2017-11-26T02:53:52.023Z,3.4
2017-11-26T02:54:54.428Z,3.4
2017-11-26T02:55:57.693Z,3.4
2017-11-26T02:57:00.032Z,3.4
2017-11-26T02:58:02.292Z,3.4
2017-11-26T02:59:04.595Z,3.4
2017-11-26T03:00:07.068Z,3.4
2017-11-26T03:01:09.467Z,3.4
2017-11-26T03:02:13.094Z,3.4
2017-11-26T03:03:15.417Z,3.4
2017-11-26T03:04:17.734Z,3.4
2017-11-26T03:05:20.101Z,3.4
2017-11-26T03:06:22.276Z,3.4
2017-11-26T03:07:24.596Z,3.5
2017-11-26T03:08:27.009Z,3.4
2017-11-26T03:09:29.249Z,3.3
2017-11-26T03:10:31.481Z,3.4
2017-11-26T03:11:33.693Z,3.3
2017-11-26T03:12:37.460Z,3.3
2017-11-26T03:13:39.784Z,3.4
2017-11-26T03:14:42.094Z,3.4
2017-11-26T03:15:44.404Z,3.4
2017-11-26T03:16:46.630Z,3.4
2017-11-26T03:17:48.881Z,3.3
2017-11-26T03:18:51.205Z,3.4
2017-11-26T03:19:53.559Z,3.4
2017-11-26T03:20:55.800Z,3.3
2017-11-26T03:21:58.164Z,3.3
2017-11-26T03:23:01.880Z,3.3
2017-11-26T03:24:04.293Z,3.3
2017-11-26T03:25:06.534Z,3.3
2017-11-26T03:26:08.884Z,3.3
2017-11-26T03:27:11.147Z,3.3
2017-11-26T03:28:13.413Z,3.3
2017-11-26T03:29:15.712Z,3.3
2017-11-26T03:30:17.949Z,3.2
2017-11-26T03:31:20.359Z,3.3
2017-11-26T03:32:22.746Z,3.3
2017-11-26T03:33:26.495Z,3.3
2017-11-26T03:34:28.788Z,3.3
2017-11-26T03:35:31.033Z,3.3
2017-11-26T03:36:33.662Z,3.3
2017-11-26T03:37:35.930Z,3.3
2017-11-26T03:38:38.181Z,3.3
2017-11-26T03:39:40.525Z,3.3
2017-11-26T03:40:42.811Z,3.3
2017-11-26T03:41:45.195Z,3.3
2017-11-26T03:42:47.592Z,3.3
2017-11-26T03:43:51.160Z,3.3
2017-11-26T03:44:53.440Z,3.3
2017-11-26T03:45:55.762Z,3.2
2017-11-26T03:46:58.251Z,3.3
2017-11-26T03:48:00.709Z,3.3
2017-11-26T03:49:03.152Z,3.2
2017-11-26T03:50:05.466Z,3.2
2017-11-26T03:51:07.692Z,3.2
2017-11-26T03:52:10.049Z,3.2
2017-11-26T03:53:12.282Z,3.2
2017-11-26T03:54:15.978Z,3.2
2017-11-26T03:55:18.362Z,3.3
2017-11-26T03:56:20.828Z,3.2
2017-11-26T03:57:23.247Z,3.2
2017-11-26T03:58:25.613Z,3.2
2017-11-26T03:59:27.968Z,3.2
2017-11-26T04:00:30.259Z,3.1
2017-11-26T04:01:32.553Z,3.1
2017-11-26T04:02:34.897Z,3.1
2017-11-26T04:03:37.154Z,3.2
2017-11-26T04:04:40.830Z,3.2
2017-11-26T04:05:43.153Z,3.2
2017-11-26T04:06:45.452Z,3.2
2017-11-26T04:07:47.789Z,3.2
2017-11-26T04:08:50.150Z,3.2
2017-11-26T04:09:52.469Z,3.2
2017-11-26T04:10:54.816Z,3.2
2017-11-26T04:11:57.177Z,3.2
2017-11-26T04:12:59.560Z,3.1
2017-11-26T04:14:01.874Z,3.1
2017-11-26T04:15:05.447Z,3.1
2017-11-26T04:16:07.775Z,3.1
2017-11-26T04:17:10.096Z,3.1
2017-11-26T04:18:12.432Z,3.1
2017-11-26T04:19:14.830Z,3.1
2017-11-26T04:20:17.201Z,3.1
2017-11-26T04:21:19.558Z,3.1
2017-11-26T04:22:21.773Z,3.1
2017-11-26T04:23:24.384Z,3
2017-11-26T04:24:26.622Z,3.1
2017-11-26T04:25:31.301Z,3.1
2017-11-26T04:26:33.670Z,3.1
2017-11-26T04:27:35.982Z,3.1
2017-11-26T04:28:38.368Z,3.1
2017-11-26T04:29:40.641Z,3.1
2017-11-26T04:30:42.880Z,3.1
2017-11-26T04:31:45.229Z,3
2017-11-26T04:32:47.474Z,3.1
2017-11-26T04:33:49.747Z,3.1
2017-11-26T04:34:51.985Z,3.1
2017-11-26T04:35:55.585Z,3.1
2017-11-26T04:36:57.804Z,3.1
2017-11-26T04:38:00.116Z,3
2017-11-26T04:39:02.727Z,3
2017-11-26T04:40:04.965Z,3.1
2017-11-26T04:41:07.198Z,3.1
2017-11-26T04:42:09.474Z,3.1
2017-11-26T04:43:11.768Z,3.1
2017-11-26T04:44:14.337Z,3.1
2017-11-26T04:45:16.583Z,3.1
2017-11-26T04:46:20.234Z,3.1
2017-11-26T04:47:22.466Z,3.1
2017-11-26T04:48:24.831Z,3.1
2017-11-26T04:49:27.177Z,3.1
2017-11-26T04:50:29.453Z,3.1
2017-11-26T04:51:31.783Z,3.1
2017-11-26T04:52:34.079Z,3.1
2017-11-26T04:53:36.394Z,3.1
2017-11-26T04:54:38.775Z,3.1
2017-11-26T04:55:41.146Z,3.1
2017-11-26T04:56:44.857Z,3
2017-11-26T04:57:47.192Z,3
2017-11-26T04:58:49.506Z,3
2017-11-26T04:59:51.851Z,3
2017-11-26T05:00:54.105Z,3
2017-11-26T05:01:56.471Z,3
2017-11-26T05:02:58.704Z,3
2017-11-26T05:04:00.987Z,3
2017-11-26T05:05:03.265Z,2.9
2017-11-26T05:06:05.605Z,2.9
2017-11-26T05:07:09.241Z,2.8
2017-11-26T05:08:11.604Z,2.7
2017-11-26T05:09:13.854Z,2.6
2017-11-26T05:10:16.236Z,2.7
2017-11-26T05:11:18.616Z,2.8
2017-11-26T05:12:20.903Z,2.8
2017-11-26T05:13:23.152Z,2.7
2017-11-26T05:14:25.454Z,2.7
2017-11-26T05:15:27.727Z,2.6
2017-11-26T05:16:30.035Z,2.7
2017-11-26T05:17:33.753Z,2.7
2017-11-26T05:18:36.063Z,2.7
2017-11-26T05:19:38.413Z,2.7
2017-11-26T05:20:40.776Z,2.7
2017-11-26T05:21:43.225Z,2.6
2017-11-26T05:22:45.612Z,2.6
2017-11-26T05:23:47.881Z,2.6
2017-11-26T05:24:50.123Z,2.7
2017-11-26T05:25:52.493Z,2.7
2017-11-26T05:26:55.872Z,2.8
2017-11-26T05:27:59.453Z,2.8
2017-11-26T05:29:01.738Z,2.8
2017-11-26T05:30:04.027Z,2.7
2017-11-26T05:31:06.473Z,2.6
2017-11-26T05:32:08.740Z,2.6
2017-11-26T05:33:11.142Z,2.6
2017-11-26T05:34:13.409Z,2.6
2017-11-26T05:35:15.718Z,2.6
2017-11-26T05:36:18.118Z,2.6
2017-11-26T05:37:20.418Z,2.6
2017-11-26T05:38:23.965Z,2.6
2017-11-26T05:39:26.293Z,2.6
2017-11-26T05:40:28.579Z,2.7
2017-11-26T05:41:30.956Z,2.7
2017-11-26T05:42:33.296Z,2.8
2017-11-26T05:43:35.547Z,2.8
2017-11-26T05:44:37.850Z,2.8
2017-11-26T05:45:40.180Z,2.8
2017-11-26T05:46:42.688Z,2.8
2017-11-26T05:47:44.991Z,2.9
2017-11-26T05:48:48.708Z,2.7
2017-11-26T05:49:50.983Z,2.7
2017-11-26T05:50:53.287Z,2.7
2017-11-26T05:51:55.948Z,2.7
2017-11-26T05:53:00.363Z,2.4
2017-11-26T05:54:02.660Z,2.1
2017-11-26T05:55:04.871Z,2.2
2017-11-26T05:56:07.232Z,2.4
2017-11-26T05:57:09.557Z,2.4
2017-11-26T05:58:11.824Z,2.4
2017-11-26T05:59:15.399Z,2.5
2017-11-26T06:00:17.594Z,2.5
2017-11-26T06:01:20.008Z,2.6
2017-11-26T06:02:22.305Z,2.6
2017-11-26T06:03:24.618Z,2.5
2017-11-26T06:04:26.838Z,2.7
2017-11-26T06:05:29.076Z,2.6
2017-11-26T06:06:31.408Z,2.6
2017-11-26T06:07:34.014Z,2.6
2017-11-26T06:08:36.392Z,2.6
2017-11-26T06:09:40.085Z,2.5
2017-11-26T06:10:42.398Z,2.6
2017-11-26T06:11:44.617Z,2.6
2017-11-26T06:12:47.173Z,2.6
2017-11-26T06:13:49.406Z,2.5
2017-11-26T06:14:51.847Z,2.6
2017-11-26T06:15:54.164Z,2.6
2017-11-26T06:16:56.508Z,2.6
2017-11-26T06:17:58.892Z,2.7
2017-11-26T06:19:01.295Z,2.7
2017-11-26T06:20:05.035Z,2.6
2017-11-26T06:21:07.347Z,2.7
2017-11-26T06:22:09.728Z,2.7
2017-11-26T06:23:12.084Z,2.8
2017-11-26T06:24:14.357Z,2.8
2017-11-26T06:25:16.779Z,2.7
2017-11-26T06:26:19.095Z,2.7
2017-11-26T06:27:21.421Z,2.6
2017-11-26T06:28:23.741Z,2.7
2017-11-26T06:29:25.971Z,2.7
2017-11-26T06:30:29.570Z,2.6
2017-11-26T06:31:31.943Z,2.6
2017-11-26T06:32:34.322Z,2.6
2017-11-26T06:33:36.691Z,2.7
2017-11-26T06:34:38.990Z,2.6
2017-11-26T06:35:41.369Z,2.6
2017-11-26T06:36:43.686Z,2.6
2017-11-26T06:37:46.017Z,2.6
2017-11-26T06:38:48.334Z,2.6
2017-11-26T06:39:50.616Z,2.6
2017-11-26T06:40:54.306Z,2.5
2017-11-26T06:41:56.577Z,2.5
2017-11-26T06:42:58.888Z,2.5
2017-11-26T06:44:01.249Z,2.5
2017-11-26T06:45:03.548Z,2.5
2017-11-26T06:46:05.857Z,2.5
2017-11-26T06:47:08.136Z,2.4
2017-11-26T06:48:10.529Z,2.5
2017-11-26T06:49:12.860Z,2.5
2017-11-26T06:50:15.336Z,2.5
2017-11-26T06:51:19.120Z,2.6
2017-11-26T06:52:21.354Z,2.4
2017-11-26T06:53:23.722Z,2.5
2017-11-26T06:54:26.054Z,2.4
2017-11-26T06:55:28.430Z,2.5
2017-11-26T06:56:30.728Z,2.5
2017-11-26T06:57:33.051Z,2.5
2017-11-26T06:58:35.358Z,2.5
2017-11-26T06:59:37.647Z,2.4
2017-11-26T07:00:39.996Z,2.4
2017-11-26T07:01:43.730Z,2.4
2017-11-26T07:02:46.018Z,2.4
2017-11-26T07:03:48.388Z,2.5
2017-11-26T07:04:50.730Z,2.4
2017-11-26T07:05:52.989Z,2.4
2017-11-26T07:06:55.328Z,2.4
2017-11-26T07:07:57.621Z,2.4
2017-11-26T07:08:59.967Z,2.4
2017-11-26T07:10:02.259Z,2.4
2017-11-26T07:11:04.557Z,2.3
2017-11-26T07:12:08.285Z,2.3
2017-11-26T07:13:10.640Z,2.3
2017-11-26T07:14:12.959Z,2.3
2017-11-26T07:15:15.386Z,2.4
2017-11-26T07:16:17.800Z,2.4
2017-11-26T07:17:20.213Z,2.3
2017-11-26T07:18:22.453Z,2.3
2017-11-26T07:19:24.736Z,2.3
2017-11-26T07:20:27.085Z,2.2
2017-11-26T07:21:29.496Z,2.2
2017-11-26T07:22:33.035Z,2.2
2017-11-26T07:23:35.396Z,2.2
2017-11-26T07:24:37.651Z,2.2
2017-11-26T07:25:39.950Z,2.2
2017-11-26T07:26:42.310Z,2.2
2017-11-26T07:27:44.597Z,2.2
2017-11-26T07:28:46.957Z,2.3
2017-11-26T07:29:49.382Z,2.3
2017-11-26T07:30:51.755Z,2.2
2017-11-26T07:31:54.050Z,2.2
2017-11-26T07:32:57.720Z,2.3
2017-11-26T07:34:00.104Z,2.2
2017-11-26T07:35:02.441Z,2.2
2017-11-26T07:36:04.726Z,2.3
2017-11-26T07:37:07.094Z,2.3
2017-11-26T07:38:09.495Z,2.3
2017-11-26T07:39:11.894Z,2.3
2017-11-26T07:40:14.214Z,2.3
2017-11-26T07:41:16.664Z,2.3
2017-11-26T07:42:19.009Z,2.3
2017-11-26T07:43:22.772Z,2.3
2017-11-26T07:44:25.213Z,2.3
2017-11-26T07:45:27.596Z,2.3
2017-11-26T07:46:29.935Z,2.3
2017-11-26T07:47:32.232Z,2.4
2017-11-26T07:48:34.626Z,2.4
2017-11-26T07:49:36.892Z,2.4
2017-11-26T07:50:40.139Z,2.4
2017-11-26T07:51:42.450Z,2.4
2017-11-26T07:52:44.779Z,2.5
2017-11-26T07:53:48.450Z,2.5
2017-11-26T07:54:50.617Z,2.5
2017-11-26T07:55:52.949Z,2.5
2017-11-26T07:56:55.446Z,2.6
2017-11-26T07:57:57.719Z,2.6
2017-11-26T07:59:00.031Z,2.6
2017-11-26T08:00:02.483Z,2.6
2017-11-26T08:01:04.770Z,2.5
2017-11-26T08:02:07.184Z,2.5
2017-11-26T08:03:09.476Z,2.4
2017-11-26T08:04:13.107Z,2.5
2017-11-26T08:05:15.318Z,2.5
2017-11-26T08:06:17.705Z,2.4
2017-11-26T08:07:20.081Z,2.4
2017-11-26T08:08:22.470Z,2.4
2017-11-26T08:09:24.798Z,2.4
2017-11-26T08:10:27.085Z,2.4
2017-11-26T08:11:29.378Z,2.4
2017-11-26T08:12:31.798Z,2.4
2017-11-26T08:13:34.099Z,2.4
2017-11-26T08:14:37.832Z,2.5
2017-11-26T08:15:40.206Z,2.5
2017-11-26T08:16:42.548Z,2.5
2017-11-26T08:17:44.859Z,2.5
2017-11-26T08:18:47.121Z,2.5
2017-11-26T08:19:49.510Z,2.5
2017-11-26T08:20:51.823Z,2.5
2017-11-26T08:21:54.090Z,2.5
2017-11-26T08:22:56.465Z,2.6
2017-11-26T08:23:58.983Z,2.6
2017-11-26T08:25:12.546Z,2.6
2017-11-26T08:26:14.921Z,2.6
2017-11-26T08:27:17.326Z,2.5
2017-11-26T08:28:19.666Z,2.6
2017-11-26T08:29:22.065Z,2.6
2017-11-26T08:30:24.373Z,2.6
2017-11-26T08:31:26.701Z,2.7
2017-11-26T08:32:29.057Z,2.7
2017-11-26T08:33:31.651Z,2.7
2017-11-26T08:34:33.942Z,2.7
2017-11-26T08:35:37.636Z,2.7
2017-11-26T08:36:40.029Z,2.7
2017-11-26T08:37:42.505Z,2.7
2017-11-26T08:38:45.076Z,2.7
2017-11-26T08:39:47.405Z,2.7
2017-11-26T08:40:49.668Z,2.8
2017-11-26T08:41:52.029Z,2.7
2017-11-26T08:42:54.343Z,2.8
2017-11-26T08:43:56.928Z,2.7
2017-11-26T08:44:59.416Z,2.8
2017-11-26T08:46:03.220Z,2.8
2017-11-26T08:47:05.604Z,2.8
2017-11-26T08:48:07.854Z,2.8
2017-11-26T08:49:10.255Z,2.8
2017-11-26T08:50:12.635Z,2.9
2017-11-26T08:51:14.980Z,2.9
2017-11-26T08:52:17.319Z,2.9
2017-11-26T08:53:19.625Z,2.9
2017-11-26T08:54:21.964Z,2.9
2017-11-26T08:55:24.369Z,3
2017-11-26T08:56:28.113Z,3
2017-11-26T08:57:31.102Z,3
2017-11-26T08:58:33.439Z,3
2017-11-26T08:59:35.878Z,3
2017-11-26T09:00:38.152Z,3
2017-11-26T09:01:40.487Z,3
2017-11-26T09:02:42.781Z,3.1
2017-11-26T09:03:45.121Z,3
2017-11-26T09:04:47.549Z,3
2017-11-26T09:05:49.875Z,2.9
2017-11-26T09:06:53.815Z,2.9
2017-11-26T09:07:56.151Z,2.9
2017-11-26T09:08:58.448Z,2.9
2017-11-26T09:10:00.798Z,2.9
2017-11-26T09:11:03.214Z,2.9
2017-11-26T09:12:05.550Z,2.8
2017-11-26T09:13:07.860Z,2.9
2017-11-26T09:14:10.106Z,2.9
2017-11-26T09:15:12.735Z,2.9
2017-11-26T09:16:15.114Z,2.8
2017-11-26T09:17:18.922Z,2.8
2017-11-26T09:18:21.190Z,2.9
2017-11-26T09:19:23.591Z,2.8
2017-11-26T09:20:26.156Z,2.9
2017-11-26T09:21:28.559Z,2.9
2017-11-26T09:22:30.964Z,3
2017-11-26T09:23:33.205Z,3
2017-11-26T09:24:35.526Z,3.1
2017-11-26T09:25:37.895Z,3.1
2017-11-26T09:26:40.166Z,3.2
2017-11-26T09:27:43.919Z,3.1
2017-11-26T09:28:46.274Z,3.2
2017-11-26T09:29:48.546Z,3.2
2017-11-26T09:30:50.827Z,3.2
2017-11-26T09:31:53.196Z,3.2
2017-11-26T09:32:55.669Z,3.2
2017-11-26T09:33:58.110Z,3.2
2017-11-26T09:35:00.465Z,3.3
2017-11-26T09:36:02.814Z,3.2
2017-11-26T09:37:05.169Z,3.2
2017-11-26T09:38:08.961Z,3.2
2017-11-26T09:39:11.306Z,3.2
2017-11-26T09:40:13.685Z,3.2
2017-11-26T09:41:15.967Z,3.2
2017-11-26T09:42:18.261Z,3.2
2017-11-26T09:43:20.576Z,3.2
2017-11-26T09:44:23.063Z,3.3
2017-11-26T09:45:25.318Z,3.2
2017-11-26T09:46:27.597Z,3.2
2017-11-26T09:47:29.999Z,3.2
2017-11-26T09:48:33.751Z,3.3
2017-11-26T09:49:36.064Z,3.2
2017-11-26T09:50:38.418Z,3.2
2017-11-26T09:51:40.889Z,3.3
2017-11-26T09:52:43.220Z,3.3
2017-11-26T09:53:45.568Z,3.2
2017-11-26T09:54:47.888Z,3.2
2017-11-26T09:55:50.103Z,3.2
2017-11-26T09:56:52.568Z,3.3
2017-11-26T09:57:54.837Z,3.4
2017-11-26T09:58:58.659Z,3.4
2017-11-26T10:00:01.012Z,3.4
2017-11-26T10:01:03.422Z,3.4
2017-11-26T10:02:05.672Z,3.4
2017-11-26T10:03:07.975Z,3.3
2017-11-26T10:04:10.302Z,3.3
2017-11-26T10:05:12.625Z,3.3
2017-11-26T10:06:14.970Z,3.3
2017-11-26T10:07:17.528Z,3.2
2017-11-26T10:08:19.855Z,3.2
2017-11-26T10:09:23.606Z,3.3
2017-11-26T10:10:25.967Z,3.3
2017-11-26T10:11:28.282Z,3.3
2017-11-26T10:12:30.879Z,3.4
2017-11-26T10:13:33.155Z,3.4
2017-11-26T10:14:35.568Z,3.3
2017-11-26T10:15:37.901Z,3.2
2017-11-26T10:16:40.233Z,3.2
2017-11-26T10:17:42.817Z,3.2
2017-11-26T10:18:45.069Z,3.2
2017-11-26T10:19:48.797Z,3.2
2017-11-26T10:20:51.120Z,3.2
2017-11-26T10:21:53.535Z,3.2
2017-11-26T10:22:56.012Z,3.2
2017-11-26T10:23:58.245Z,3.2
2017-11-26T10:25:00.601Z,3.2
2017-11-26T10:26:03.616Z,3.2
2017-11-26T10:27:05.933Z,3.2
2017-11-26T10:28:08.289Z,3.2
2017-11-26T10:29:10.582Z,3.1
2017-11-26T10:30:14.227Z,3.3
2017-11-26T10:31:17.178Z,3.4
2017-11-26T10:32:20.365Z,3.4
2017-11-26T10:33:22.633Z,3.4
2017-11-26T10:34:24.941Z,3.4
2017-11-26T10:35:27.339Z,3.4
2017-11-26T10:36:29.709Z,3.5
2017-11-26T10:37:32.124Z,3.5
2017-11-26T10:38:34.461Z,3.6
2017-11-26T10:39:36.778Z,3.6
2017-11-26T10:40:40.366Z,3.6
2017-11-26T10:41:42.707Z,3.6
2017-11-26T10:42:44.991Z,3.6
2017-11-26T10:43:47.443Z,3.7
2017-11-26T10:44:49.685Z,3.7
2017-11-26T10:45:51.993Z,3.7
2017-11-26T10:46:54.385Z,3.7
2017-11-26T10:47:56.728Z,3.7
2017-11-26T10:48:59.423Z,3.6
2017-11-26T10:50:01.896Z,3.7
2017-11-26T10:51:05.599Z,3.7
2017-11-26T10:52:07.978Z,3.8
2017-11-26T10:53:10.353Z,3.7
2017-11-26T10:54:12.777Z,3.8
2017-11-26T10:55:15.283Z,3.8
2017-11-26T10:56:17.631Z,3.8
2017-11-26T10:57:19.980Z,3.8
2017-11-26T10:58:22.269Z,3.8
2017-11-26T10:59:24.791Z,3.9
2017-11-26T11:00:27.052Z,3.9
2017-11-26T11:01:30.697Z,3.9
2017-11-26T11:02:33.055Z,4
2017-11-26T11:03:35.512Z,4.1
2017-11-26T11:04:37.920Z,4
2017-11-26T11:05:40.288Z,4.1
2017-11-26T11:06:42.695Z,4.1
2017-11-26T11:07:45.085Z,4.1
2017-11-26T11:08:47.429Z,4.1
2017-11-26T11:09:49.768Z,4.1
2017-11-26T11:10:52.146Z,4.1
2017-11-26T11:11:55.831Z,4.2
2017-11-26T11:12:58.262Z,4.2
2017-11-26T11:14:00.625Z,4.2
2017-11-26T11:15:02.908Z,4.2
2017-11-26T11:16:05.303Z,4.1
2017-11-26T11:17:07.608Z,4.1
2017-11-26T11:18:10.008Z,4.2
2017-11-26T11:19:12.283Z,4.2
2017-11-26T11:20:14.549Z,4.2
2017-11-26T11:21:16.912Z,4.3
2017-11-26T11:22:20.641Z,4.2
2017-11-26T11:23:23.014Z,4.2
2017-11-26T11:24:25.260Z,4.2
2017-11-26T11:25:27.703Z,4.2
2017-11-26T11:26:30.128Z,4.3
2017-11-26T11:27:32.525Z,4.2
2017-11-26T11:28:34.796Z,4.1
2017-11-26T11:29:37.286Z,4.1
2017-11-26T11:30:39.721Z,4.1
2017-11-26T11:31:42.123Z,4.1
2017-11-26T11:32:45.720Z,4.2
2017-11-26T11:33:48.632Z,4.2
2017-11-26T11:34:51.068Z,4.2
2017-11-26T11:35:53.436Z,4.1
2017-11-26T11:36:55.773Z,4.2
2017-11-26T11:37:58.089Z,4.2
2017-11-26T11:39:00.926Z,4.1
2017-11-26T11:40:03.291Z,4.1
2017-11-26T11:41:05.668Z,4.2
2017-11-26T11:42:08.078Z,4.1
2017-11-26T11:43:11.815Z,4.1
2017-11-26T11:44:14.175Z,4.1
2017-11-26T11:45:16.510Z,4
2017-11-26T11:46:18.973Z,4.1
2017-11-26T11:47:21.337Z,4.2
2017-11-26T11:48:23.780Z,4.1
2017-11-26T11:49:26.180Z,4.2
2017-11-26T11:50:28.642Z,4.1
2017-11-26T11:51:30.969Z,4.1
2017-11-26T11:52:33.427Z,4.1
2017-11-26T11:53:37.193Z,4.2
2017-11-26T11:54:39.550Z,4.2
2017-11-26T11:55:41.886Z,4.1
2017-11-26T11:56:44.347Z,4
2017-11-26T11:57:46.693Z,4
2017-11-26T11:58:49.060Z,4.1
2017-11-26T11:59:51.415Z,4
2017-11-26T12:00:53.780Z,4
2017-11-26T12:01:56.173Z,4.1
2017-11-26T12:02:58.416Z,4.1
2017-11-26T12:04:02.315Z,4.1
2017-11-26T12:05:04.688Z,4.1
2017-11-26T12:06:07.108Z,4.1
2017-11-26T12:07:09.457Z,4.1
2017-11-26T12:08:11.824Z,4.1
2017-11-26T12:09:14.118Z,4.1
2017-11-26T12:10:16.377Z,4.1
2017-11-26T12:11:18.779Z,4.1
2017-11-26T12:12:21.133Z,3.9
2017-11-26T12:13:23.386Z,4
2017-11-26T12:18:45.638Z,4
2017-11-26T12:19:47.928Z,4.1
2017-11-26T12:20:50.265Z,4.1
2017-11-26T12:21:52.678Z,4.1
2017-11-26T12:22:55.126Z,4
2017-11-26T12:23:57.504Z,4.1
2017-11-26T12:24:59.926Z,4.1
2017-11-26T12:26:02.214Z,4.1
2017-11-26T12:27:04.608Z,4.1
2017-11-26T12:28:06.855Z,4.1
2017-11-26T12:29:10.979Z,4.1
2017-11-26T12:30:13.445Z,4.1
2017-11-26T12:31:15.686Z,4.1
2017-11-26T12:32:18.080Z,4.1
2017-11-26T12:33:20.480Z,4.1
2017-11-26T12:34:23.036Z,4.2
2017-11-26T12:35:25.384Z,4.1
2017-11-26T12:36:27.733Z,4.1
2017-11-26T12:37:30.070Z,4.1
2017-11-26T12:38:32.460Z,4.1
2017-11-26T12:39:36.198Z,4.1
2017-11-26T12:40:38.462Z,4
2017-11-26T12:41:40.767Z,4
2017-11-26T12:42:43.082Z,4
2017-11-26T12:43:45.485Z,4
2017-11-26T12:44:47.873Z,3.9
2017-11-26T12:45:50.200Z,3.9
2017-11-26T12:46:52.450Z,3.8
2017-11-26T12:47:54.747Z,3.9
2017-11-26T12:48:57.099Z,3.9
2017-11-26T12:50:00.841Z,3.9
2017-11-26T12:51:03.322Z,3.9
2017-11-26T12:52:05.645Z,3.9
2017-11-26T12:53:08.067Z,3.9
2017-11-26T12:54:10.434Z,3.9
2017-11-26T12:55:12.887Z,3.9
2017-11-26T12:56:15.329Z,3.8
2017-11-26T12:57:17.701Z,4
2017-11-26T12:58:20.039Z,4
2017-11-26T12:59:22.383Z,4.1
2017-11-26T13:00:26.252Z,4.1
2017-11-26T13:01:28.631Z,4.2
2017-11-26T13:02:31.074Z,4.1
2017-11-26T13:03:33.357Z,4.1
2017-11-26T13:04:35.655Z,4
2017-11-26T13:05:38.033Z,4.1
2017-11-26T13:06:40.405Z,4.1
2017-11-26T13:07:42.864Z,4.1
2017-11-26T13:08:45.088Z,4.1
2017-11-26T13:09:47.509Z,4.2
2017-11-26T13:10:51.380Z,4.1
2017-11-26T13:11:53.688Z,4.1
2017-11-26T13:12:56.105Z,4.1
2017-11-26T13:13:58.484Z,4.1
2017-11-26T13:15:00.861Z,4.2
2017-11-26T13:16:03.221Z,4.2
2017-11-26T13:17:05.593Z,4.1
2017-11-26T13:18:07.916Z,4.1
2017-11-26T13:19:10.226Z,4
2017-11-26T13:20:12.543Z,4.1
2017-11-26T13:21:16.646Z,4.1
2017-11-26T13:22:18.978Z,4.1
2017-11-26T13:23:21.237Z,4.1
2017-11-26T13:24:23.647Z,4
2017-11-26T13:25:25.985Z,4
2017-11-26T13:26:28.317Z,4
2017-11-26T13:27:30.771Z,4
2017-11-26T13:28:33.106Z,4
2017-11-26T13:29:35.495Z,4
2017-11-26T13:30:37.886Z,4.1
2017-11-26T13:31:41.702Z,4.1
2017-11-26T13:32:44.771Z,4
2017-11-26T13:33:47.105Z,4
2017-11-26T13:34:49.471Z,4
2017-11-26T13:35:51.869Z,4
2017-11-26T13:36:54.143Z,4.1
2017-11-26T13:37:56.530Z,4.1
2017-11-26T13:38:58.928Z,4
2017-11-26T13:40:01.226Z,4
2017-11-26T13:41:03.596Z,4
2017-11-26T13:42:07.282Z,4
2017-11-26T13:43:09.627Z,3.9
2017-11-26T13:44:12.017Z,3.9
2017-11-26T13:45:14.495Z,3.8
2017-11-26T13:46:16.877Z,3.8
2017-11-26T13:47:19.291Z,3.8
2017-11-26T13:48:21.607Z,3.9
2017-11-26T13:49:23.956Z,3.9
2017-11-26T13:50:26.338Z,3.9
2017-11-26T13:51:28.781Z,3.8
2017-11-26T13:52:32.795Z,3.9
2017-11-26T13:53:35.126Z,3.9
2017-11-26T13:54:37.529Z,3.8
2017-11-26T13:55:39.891Z,3.9
2017-11-26T13:56:42.265Z,3.9
2017-11-26T13:57:44.620Z,3.9
2017-11-26T13:58:46.888Z,3.9
2017-11-26T13:59:49.272Z,3.9
2017-11-26T14:00:51.579Z,3.9
2017-11-26T14:01:54.916Z,3.9
2017-11-26T14:02:58.761Z,4
2017-11-26T14:04:01.088Z,4
2017-11-26T14:05:03.472Z,3.9
2017-11-26T14:06:05.820Z,3.9
2017-11-26T14:07:08.126Z,3.9
2017-11-26T14:09:52.146Z,1.2
2017-11-26T14:13:11.098Z,1.4
2017-11-26T14:14:12.445Z,1.9
2017-11-26T14:15:13.823Z,1.8
2017-11-26T14:16:15.231Z,1.8
2017-11-26T14:17:16.607Z,1.8
2017-11-26T14:18:17.875Z,1.8
2017-11-26T14:19:19.180Z,1.9
2017-11-26T14:20:20.534Z,1.9
2017-11-26T14:21:21.946Z,1.9
2017-11-26T14:22:23.418Z,1.9
2017-11-26T14:23:26.189Z,1.9
2017-11-26T14:24:27.627Z,1.9
2017-11-26T14:25:29.014Z,1.9
2017-11-26T14:26:30.451Z,2
2017-11-26T14:27:31.772Z,2
2017-11-26T14:28:33.291Z,2
2017-11-26T14:29:34.629Z,2
2017-11-26T14:30:36.038Z,2
2017-11-26T14:31:37.390Z,2
2017-11-26T14:32:38.766Z,2
2017-11-26T14:33:41.503Z,2
2017-11-26T14:34:42.868Z,2.1
2017-11-26T14:35:44.173Z,2